createdAt,value
2018-09-10T00:00:44.696Z,14.90
2018-09-10T00:03:13.800Z,14.80
2018-09-10T00:05:43.036Z,14.80
2018-09-10T00:08:12.654Z,14.80
2018-09-10T00:10:41.626Z,14.80
2018-09-10T00:13:10.580Z,14.70
2018-09-10T00:15:39.583Z,14.70
2018-09-10T00:18:08.469Z,14.70
2018-09-10T00:20:37.439Z,14.60
2018-09-10T00:23:06.388Z,14.70
2018-09-10T00:25:35.690Z,14.70
2018-09-10T00:28:04.658Z,14.70
2018-09-10T00:30:33.586Z,14.70
2018-09-10T00:33:02.562Z,14.80
2018-09-10T00:35:31.555Z,14.80
2018-09-10T00:38:00.558Z,14.90
2018-09-10T00:40:29.446Z,15.00
2018-09-10T00:42:58.405Z,15.00
2018-09-10T00:45:27.346Z,15.10
2018-09-10T00:47:56.424Z,15.20
2018-09-10T00:50:25.385Z,15.30
2018-09-10T00:52:54.335Z,15.30
2018-09-10T00:55:24.061Z,15.30
2018-09-10T00:57:53.580Z,15.30
2018-09-10T01:00:22.579Z,15.30
2018-09-10T01:02:51.551Z,15.30
2018-09-10T01:05:20.541Z,15.30
2018-09-10T01:07:49.505Z,15.30
2018-09-10T01:10:18.563Z,15.30
2018-09-10T01:12:47.523Z,15.30
2018-09-10T01:15:16.677Z,15.30
2018-09-10T01:17:45.602Z,15.20
2018-09-10T01:20:14.549Z,15.20
2018-09-10T01:22:43.465Z,15.10
2018-09-10T01:25:12.420Z,15.10
2018-09-10T01:27:41.415Z,15.00
2018-09-10T01:30:10.374Z,15.00
2018-09-10T01:32:39.289Z,15.00
2018-09-10T01:35:08.325Z,14.90
2018-09-10T01:37:37.286Z,14.80
2018-09-10T01:40:06.210Z,14.80
2018-09-10T01:42:35.149Z,14.80
2018-09-10T01:45:04.105Z,14.70
2018-09-10T01:47:33.378Z,14.70
2018-09-10T01:50:02.318Z,14.60
2018-09-10T01:52:31.276Z,14.60
2018-09-10T01:55:00.212Z,14.60
2018-09-10T01:57:29.145Z,14.60
2018-09-10T01:59:58.239Z,14.70
2018-09-10T02:02:27.162Z,14.70
2018-09-10T02:04:56.127Z,14.70
2018-09-10T02:07:25.091Z,14.70
2018-09-10T02:09:54.023Z,14.70
2018-09-10T02:12:23.839Z,14.70
2018-09-10T02:14:53.530Z,14.80
2018-09-10T02:17:22.604Z,14.80
2018-09-10T02:19:51.550Z,14.80
2018-09-10T02:22:20.808Z,14.90
2018-09-10T02:24:49.765Z,14.90
2018-09-10T02:27:18.694Z,15.00
2018-09-10T02:29:47.710Z,15.00
2018-09-10T02:32:16.695Z,15.00
2018-09-10T02:34:45.654Z,15.00
2018-09-10T02:37:14.572Z,15.00
2018-09-10T02:39:43.526Z,15.00
2018-09-10T02:42:12.469Z,14.90
2018-09-10T02:44:42.202Z,14.90
2018-09-10T02:47:11.105Z,14.90
2018-09-10T02:49:40.086Z,14.80
2018-09-10T02:52:09.009Z,14.80
2018-09-10T02:54:37.935Z,14.80
2018-09-10T02:57:06.930Z,14.80
2018-09-10T02:59:35.917Z,14.80
2018-09-10T03:02:04.863Z,14.80
2018-09-10T03:04:33.868Z,14.80
2018-09-10T03:07:02.821Z,14.80
2018-09-10T03:09:31.771Z,14.80
2018-09-10T03:12:00.734Z,14.80
2018-09-10T03:14:29.678Z,14.80
2018-09-10T03:16:58.585Z,14.80
2018-09-10T03:19:27.749Z,14.80
2018-09-10T03:21:56.781Z,14.80
2018-09-10T03:24:25.749Z,14.80
2018-09-10T03:26:54.688Z,14.80
2018-09-10T03:29:23.638Z,14.70
2018-09-10T03:31:52.676Z,14.70
2018-09-10T03:34:21.626Z,14.70
2018-09-10T03:36:50.622Z,14.70
2018-09-10T03:39:19.574Z,14.80
2018-09-10T03:41:48.494Z,14.80
2018-09-10T03:44:17.449Z,14.80
2018-09-10T03:46:46.383Z,14.80
2018-09-10T03:49:15.341Z,14.80
2018-09-10T03:51:44.438Z,14.80
2018-09-10T03:54:13.350Z,14.80
2018-09-10T03:56:42.303Z,14.90
2018-09-10T03:59:11.572Z,14.90
2018-09-10T04:01:40.773Z,14.90
2018-09-10T04:04:09.701Z,14.90
2018-09-10T04:06:38.677Z,14.90
2018-09-10T04:09:08.157Z,14.90
2018-09-10T04:11:37.095Z,14.90
2018-09-10T04:14:06.024Z,15.00
2018-09-10T04:16:34.979Z,15.00
2018-09-10T04:19:03.930Z,15.00
2018-09-10T04:21:32.870Z,15.10
2018-09-10T04:24:01.806Z,15.10
2018-09-10T04:26:30.770Z,15.10
2018-09-10T04:28:59.778Z,15.10
2018-09-10T04:31:28.727Z,15.10
2018-09-10T04:33:57.717Z,15.10
2018-09-10T04:36:26.694Z,15.20
2018-09-10T04:38:55.667Z,15.20
2018-09-10T04:41:24.626Z,15.20
2018-09-10T04:43:53.571Z,15.20
2018-09-10T04:46:22.530Z,15.20
2018-09-10T04:48:51.502Z,15.20
2018-09-10T04:51:20.466Z,15.20
2018-09-10T04:53:49.422Z,15.20
2018-09-10T04:56:18.376Z,15.20
2018-09-10T04:58:47.330Z,15.20
2018-09-10T05:01:16.495Z,15.20
2018-09-10T05:03:46.061Z,15.20
2018-09-10T05:06:15.193Z,15.20
2018-09-10T05:08:45.236Z,15.20
2018-09-10T05:11:14.357Z,15.20
2018-09-10T05:13:43.366Z,15.30
2018-09-10T05:16:12.382Z,15.30
2018-09-10T05:18:41.442Z,15.30
2018-09-10T05:21:10.461Z,15.40
2018-09-10T05:23:39.455Z,15.40
2018-09-10T05:26:08.425Z,15.40
2018-09-10T05:28:37.398Z,15.50
2018-09-10T05:31:06.386Z,15.50
2018-09-10T05:33:35.493Z,15.50
2018-09-10T05:36:04.443Z,15.50
2018-09-10T05:38:33.381Z,15.50
2018-09-10T05:41:02.557Z,15.50
2018-09-10T05:43:31.607Z,15.60
2018-09-10T05:46:00.552Z,15.60
2018-09-10T05:48:29.754Z,15.60
2018-09-10T05:50:58.701Z,15.60
2018-09-10T05:53:27.624Z,15.70
2018-09-10T05:55:56.614Z,15.70
2018-09-10T05:58:25.525Z,15.70
2018-09-10T06:00:54.518Z,15.70
2018-09-10T06:03:23.537Z,15.80
2018-09-10T06:05:52.522Z,15.80
2018-09-10T06:08:21.520Z,15.80
2018-09-10T06:10:50.568Z,15.80
2018-09-10T06:13:19.621Z,15.90
2018-09-10T06:15:48.783Z,15.90
2018-09-10T06:18:17.844Z,15.90
2018-09-10T06:20:47.016Z,15.90
2018-09-10T06:23:16.134Z,16.00
2018-09-10T06:25:45.332Z,16.00
2018-09-10T06:28:15.446Z,16.00
2018-09-10T06:30:44.498Z,16.10
2018-09-10T06:33:13.433Z,16.10
2018-09-10T06:35:42.398Z,16.10
2018-09-10T06:38:11.406Z,16.10
2018-09-10T06:40:40.614Z,16.20
2018-09-10T06:43:09.546Z,16.30
2018-09-10T06:45:38.649Z,16.40
2018-09-10T06:48:07.661Z,16.50
2018-09-10T06:50:36.606Z,16.50
2018-09-10T06:53:06.582Z,16.60
2018-09-10T06:55:35.750Z,16.70
2018-09-10T06:58:04.753Z,16.80
2018-09-10T07:00:33.786Z,16.90
2018-09-10T07:03:02.742Z,16.90
2018-09-10T07:05:31.776Z,17.00
2018-09-10T07:08:00.766Z,17.00
2018-09-10T07:10:29.687Z,17.10
2018-09-10T07:12:58.756Z,17.10
2018-09-10T07:15:27.701Z,17.10
2018-09-10T07:17:56.950Z,17.20
2018-09-10T07:20:25.890Z,17.30
2018-09-10T07:22:54.866Z,17.30
2018-09-10T07:25:24.499Z,17.40
2018-09-10T07:27:53.420Z,17.40
2018-09-10T07:30:22.423Z,17.40
2018-09-10T07:32:51.406Z,17.40
2018-09-10T07:35:20.371Z,17.50
2018-09-10T07:37:49.415Z,17.60
2018-09-10T07:40:18.378Z,17.70
2018-09-10T07:42:47.297Z,17.80
2018-09-10T07:45:16.272Z,17.90
2018-09-10T07:47:45.214Z,18.00
2018-09-10T07:50:14.142Z,18.10
2018-09-10T07:52:43.107Z,18.20
2018-09-10T07:55:12.109Z,18.30
2018-09-10T07:57:41.314Z,18.30
2018-09-10T08:00:10.255Z,18.30
2018-09-10T08:02:39.183Z,18.40
2018-09-10T08:05:08.160Z,18.50
2018-09-10T08:07:37.094Z,18.60
2018-09-10T08:10:06.066Z,18.60
2018-09-10T08:12:34.998Z,18.70
2018-09-10T08:15:03.962Z,18.80
2018-09-10T08:17:32.918Z,19.00
2018-09-10T08:20:01.872Z,19.00
2018-09-10T08:22:30.812Z,19.00
2018-09-10T08:24:59.753Z,19.10
2018-09-10T08:27:28.683Z,19.30
2018-09-10T08:29:57.637Z,19.30
2018-09-10T08:32:26.570Z,19.30
2018-09-10T08:34:55.582Z,19.40
2018-09-10T08:37:24.527Z,19.40
2018-09-10T08:39:53.481Z,19.60
2018-09-10T08:42:22.448Z,19.70
2018-09-10T08:44:51.401Z,19.90
2018-09-10T08:47:20.342Z,20.10
2018-09-10T08:49:49.300Z,20.20
2018-09-10T08:52:19.085Z,20.30
2018-09-10T08:54:48.506Z,20.40
2018-09-10T08:57:16.971Z,20.70
2018-09-10T08:59:46.018Z,20.90
2018-09-10T09:02:14.970Z,21.10
2018-09-10T09:04:43.902Z,21.30
2018-09-10T09:07:12.877Z,21.50
2018-09-10T09:09:41.869Z,21.70
2018-09-10T09:12:10.825Z,21.90
2018-09-10T09:14:39.765Z,22.10
2018-09-10T09:17:08.704Z,22.10
2018-09-10T09:19:37.631Z,22.20
2018-09-10T09:22:06.583Z,22.20
2018-09-10T09:24:35.511Z,22.20
2018-09-10T09:27:04.455Z,22.30
2018-09-10T09:29:33.464Z,22.30
2018-09-10T09:32:02.368Z,22.30
2018-09-10T09:34:37.753Z,22.40
2018-09-10T09:37:12.130Z,22.60
2018-09-10T09:39:46.514Z,22.50
2018-09-10T09:42:20.754Z,22.60
2018-09-10T09:44:55.051Z,22.50
2018-09-10T09:47:24.027Z,22.60
2018-09-10T09:49:52.955Z,22.60
2018-09-10T09:52:21.920Z,22.50
2018-09-10T09:54:50.850Z,22.50
2018-09-10T09:57:19.811Z,22.50
2018-09-10T09:59:48.820Z,22.50
2018-09-10T10:02:24.803Z,22.50
2018-09-10T10:04:53.773Z,22.50
2018-09-10T10:07:22.744Z,22.60
2018-09-10T10:09:51.707Z,22.60
2018-09-10T10:12:20.696Z,22.70
2018-09-10T10:14:49.610Z,22.80
2018-09-10T10:17:20.281Z,23.00
2018-09-10T10:19:49.887Z,23.20
2018-09-10T10:22:18.814Z,23.30
2018-09-10T10:24:47.783Z,23.40
2018-09-10T10:27:16.732Z,23.30
2018-09-10T10:29:45.770Z,23.30
2018-09-10T10:32:14.710Z,23.30
2018-09-10T10:34:43.694Z,23.20
2018-09-10T10:37:12.626Z,23.10
2018-09-10T10:39:41.589Z,22.90
2018-09-10T10:42:11.537Z,22.90
2018-09-10T10:44:40.456Z,23.00
2018-09-10T10:47:09.417Z,22.90
2018-09-10T10:49:38.622Z,23.00
2018-09-10T10:52:07.595Z,23.20
2018-09-10T10:54:36.526Z,23.30
2018-09-10T10:57:05.490Z,23.50
2018-09-10T10:59:34.413Z,23.60
2018-09-10T11:02:03.396Z,23.60
2018-09-10T11:04:32.362Z,23.60
2018-09-10T11:07:01.286Z,23.80
2018-09-10T11:09:30.223Z,23.80
2018-09-10T11:11:59.182Z,23.60
2018-09-10T11:14:28.143Z,23.60
2018-09-10T11:16:57.064Z,23.70
2018-09-10T11:19:25.991Z,23.70
2018-09-10T11:21:54.926Z,23.90
2018-09-10T11:24:23.874Z,24.00
2018-09-10T11:26:52.809Z,23.80
2018-09-10T11:29:22.982Z,23.90
2018-09-10T11:31:51.900Z,24.10
2018-09-10T11:34:20.827Z,24.10
2018-09-10T11:36:49.797Z,23.90
2018-09-10T11:39:18.722Z,23.80
2018-09-10T11:41:47.643Z,23.70
2018-09-10T11:44:16.597Z,23.60
2018-09-10T11:46:45.555Z,23.50
2018-09-10T11:49:15.552Z,23.40
2018-09-10T11:51:45.511Z,23.30
2018-09-10T11:54:14.450Z,23.20
2018-09-10T11:56:44.412Z,23.00
2018-09-10T11:59:13.568Z,23.10
2018-09-10T12:01:42.572Z,22.90
2018-09-10T12:04:11.473Z,22.80
2018-09-10T12:06:40.504Z,22.80
2018-09-10T12:09:10.309Z,22.70
2018-09-10T12:11:39.325Z,22.60
2018-09-10T12:14:08.267Z,22.60
2018-09-10T12:16:37.398Z,22.30
2018-09-10T12:19:06.434Z,22.20
2018-09-10T12:21:35.374Z,22.20
2018-09-10T12:24:04.238Z,22.10
2018-09-10T12:26:33.221Z,22.20
2018-09-10T12:29:02.366Z,22.20
2018-09-10T12:31:31.367Z,22.30
2018-09-10T12:34:00.291Z,22.30
2018-09-10T12:36:29.198Z,22.40
2018-09-10T12:38:58.137Z,22.50
2018-09-10T12:41:27.061Z,22.70
2018-09-10T12:43:56.066Z,22.80
2018-09-10T12:46:25.034Z,22.80
2018-09-10T12:48:53.940Z,22.80
2018-09-10T12:51:22.899Z,22.90
2018-09-10T12:53:51.829Z,23.00
2018-09-10T12:56:20.782Z,23.10
2018-09-10T12:58:49.748Z,23.10
2018-09-10T13:01:18.706Z,23.10
2018-09-10T13:03:47.660Z,23.10
2018-09-10T13:06:16.610Z,23.10
2018-09-10T13:08:45.527Z,23.20
2018-09-10T13:11:14.473Z,23.40
2018-09-10T13:13:43.485Z,23.50
2018-09-10T13:16:12.458Z,23.40
2018-09-10T13:18:41.368Z,23.30
2018-09-10T13:21:10.318Z,23.20
2018-09-10T13:23:39.231Z,23.10
2018-09-10T13:26:08.222Z,22.80
2018-09-10T13:28:37.232Z,22.70
2018-09-10T13:31:06.349Z,22.60
2018-09-10T13:33:35.358Z,22.60
2018-09-10T13:36:04.553Z,22.60
2018-09-10T13:38:33.502Z,22.60
2018-09-10T13:41:02.433Z,22.50
2018-09-10T13:43:31.379Z,22.50
2018-09-10T13:46:00.415Z,22.50
2018-09-10T13:48:29.366Z,22.60
2018-09-10T13:50:58.649Z,22.60
2018-09-10T13:53:27.607Z,22.70
2018-09-10T13:55:56.550Z,22.80
2018-09-10T13:58:25.491Z,22.60
2018-09-10T14:00:54.487Z,22.60
2018-09-10T14:03:23.430Z,22.60
2018-09-10T14:05:52.392Z,22.70
2018-09-10T14:08:21.347Z,22.60
2018-09-10T14:10:50.305Z,22.60
2018-09-10T14:13:19.283Z,22.60
2018-09-10T14:15:48.263Z,22.60
2018-09-10T14:18:17.371Z,22.70
2018-09-10T14:20:46.210Z,22.60
2018-09-10T14:23:15.132Z,22.60
2018-09-10T14:25:44.086Z,22.60
2018-09-10T14:28:13.050Z,22.60
2018-09-10T14:30:42.043Z,22.50
2018-09-10T14:33:10.979Z,22.40
2018-09-10T14:35:39.933Z,22.40
2018-09-10T14:38:08.854Z,22.40
2018-09-10T14:40:37.779Z,22.50
2018-09-10T14:43:06.824Z,22.60
2018-09-10T14:45:35.945Z,22.50
2018-09-10T14:48:04.929Z,22.40
2018-09-10T14:50:33.906Z,22.40
2018-09-10T14:53:02.816Z,22.40
2018-09-10T14:55:31.749Z,22.30
2018-09-10T14:58:00.674Z,22.30
2018-09-10T15:00:29.614Z,22.20
2018-09-10T15:02:58.541Z,22.10
2018-09-10T15:05:27.477Z,21.90
2018-09-10T15:07:56.569Z,21.70
2018-09-10T15:10:25.501Z,21.70
2018-09-10T15:12:54.440Z,21.70
2018-09-10T15:15:23.366Z,21.60
2018-09-10T15:17:52.314Z,21.60
2018-09-10T15:20:21.261Z,21.70
2018-09-10T15:22:50.198Z,21.70
2018-09-10T15:25:19.166Z,21.70
2018-09-10T15:27:48.160Z,21.80
2018-09-10T15:30:17.149Z,21.80
2018-09-10T15:32:46.074Z,21.90
2018-09-10T15:35:15.041Z,21.80
2018-09-10T15:37:43.994Z,21.80
2018-09-10T15:40:12.994Z,21.90
2018-09-10T15:42:42.026Z,21.90
2018-09-10T15:45:11.074Z,21.90
2018-09-10T15:47:40.019Z,21.80
2018-09-10T15:50:08.983Z,21.80
2018-09-10T15:52:38.611Z,21.80
2018-09-10T15:55:07.554Z,21.80
2018-09-10T15:57:36.586Z,21.90
2018-09-10T16:00:05.469Z,21.90
2018-09-10T16:02:34.393Z,21.90
2018-09-10T16:05:03.334Z,22.00
2018-09-10T16:07:32.292Z,22.00
2018-09-10T16:10:01.236Z,22.00
2018-09-10T16:12:30.161Z,22.00
2018-09-10T16:14:59.136Z,21.90
2018-09-10T16:17:28.041Z,21.90
2018-09-10T16:19:57.022Z,22.00
2018-09-10T16:22:25.950Z,21.90
2018-09-10T16:24:54.879Z,21.80
2018-09-10T16:27:23.896Z,21.90
2018-09-10T16:29:52.797Z,21.90
2018-09-10T16:32:21.741Z,21.90
2018-09-10T16:34:50.728Z,21.90
2018-09-10T16:37:19.657Z,21.80
2018-09-10T16:39:48.570Z,21.70
2018-09-10T16:42:17.590Z,21.60
2018-09-10T16:44:46.570Z,21.50
2018-09-10T16:47:15.542Z,21.50
2018-09-10T16:49:44.515Z,21.50
2018-09-10T16:52:13.479Z,21.30
2018-09-10T16:54:42.501Z,21.30
2018-09-10T16:57:11.379Z,21.20
2018-09-10T16:59:40.322Z,21.20
2018-09-10T17:02:09.277Z,21.20
2018-09-10T17:04:38.206Z,21.20
2018-09-10T17:07:07.137Z,21.20
2018-09-10T17:09:37.078Z,21.20
2018-09-10T17:12:06.032Z,21.20
2018-09-10T17:14:36.881Z,21.10
2018-09-10T17:17:06.718Z,21.00
2018-09-10T17:19:35.963Z,21.00
2018-09-10T17:22:05.498Z,21.00
2018-09-10T17:24:34.448Z,21.00
2018-09-10T17:27:03.411Z,20.90
2018-09-10T17:29:32.373Z,20.90
2018-09-10T17:32:01.446Z,20.80
2018-09-10T17:34:30.405Z,20.80
2018-09-10T17:36:59.381Z,20.70
2018-09-10T17:39:28.336Z,20.60
2018-09-10T17:41:57.266Z,20.50
2018-09-10T17:44:26.218Z,20.40
2018-09-10T17:46:55.282Z,20.30
2018-09-10T17:49:24.167Z,20.30
2018-09-10T17:51:53.147Z,20.20
2018-09-10T17:54:22.119Z,20.00
2018-09-10T17:56:51.030Z,19.90
2018-09-10T17:59:19.989Z,19.80
2018-09-10T18:01:48.926Z,19.70
2018-09-10T18:04:17.895Z,19.60
2018-09-10T18:06:46.854Z,19.50
2018-09-10T18:09:15.779Z,19.50
2018-09-10T18:11:44.776Z,19.40
2018-09-10T18:14:13.717Z,19.30
2018-09-10T18:16:42.671Z,19.10
2018-09-10T18:19:11.599Z,19.00
2018-09-10T18:21:40.542Z,18.90
2018-09-10T18:24:09.490Z,18.80
2018-09-10T18:26:38.433Z,18.80
2018-09-10T18:29:07.433Z,18.70
2018-09-10T18:31:37.383Z,18.50
2018-09-10T18:34:06.411Z,18.40
2018-09-10T18:36:35.410Z,18.40
2018-09-10T18:39:07.097Z,18.30
2018-09-10T18:41:36.050Z,18.20
2018-09-10T18:44:04.971Z,18.20
2018-09-10T18:46:33.977Z,18.10
2018-09-10T18:49:03.028Z,18.00
2018-09-10T18:51:31.876Z,18.00
2018-09-10T18:54:00.835Z,18.00
2018-09-10T18:56:29.783Z,17.90
2018-09-10T18:58:58.733Z,17.80
2018-09-10T19:01:27.783Z,17.70
2018-09-10T19:03:56.646Z,17.70
2018-09-10T19:06:25.610Z,17.60
2018-09-10T19:08:54.546Z,17.50
2018-09-10T19:11:23.487Z,17.40
2018-09-10T19:13:52.437Z,17.40
2018-09-10T19:16:21.371Z,17.30
2018-09-10T19:18:50.306Z,17.20
2018-09-10T19:21:19.226Z,17.20
2018-09-10T19:23:48.166Z,17.10
2018-09-10T19:26:17.320Z,17.10
2018-09-10T19:28:46.269Z,17.10
2018-09-10T19:31:15.254Z,17.00
2018-09-10T19:33:44.202Z,17.00
2018-09-10T19:36:13.152Z,16.90
2018-09-10T19:38:42.138Z,16.80
2018-09-10T19:41:11.117Z,16.80
2018-09-10T19:43:40.076Z,16.70
2018-09-10T19:46:09.107Z,16.70
2018-09-10T19:48:38.075Z,16.60
2018-09-10T19:51:07.001Z,16.60
2018-09-10T19:53:35.959Z,16.60
2018-09-10T19:56:04.899Z,16.50
2018-09-10T19:58:33.821Z,16.50
2018-09-10T20:01:02.789Z,16.40
2018-09-10T20:03:31.722Z,16.40
2018-09-10T20:06:00.682Z,16.40
2018-09-10T20:08:29.610Z,16.40
2018-09-10T20:10:58.523Z,16.30
2018-09-10T20:13:27.506Z,16.30
2018-09-10T20:15:56.430Z,16.40
2018-09-10T20:18:25.377Z,16.40
2018-09-10T20:20:54.340Z,16.30
2018-09-10T20:23:23.303Z,16.30
2018-09-10T20:25:52.261Z,16.30
2018-09-10T20:28:21.369Z,16.30
2018-09-10T20:30:50.750Z,16.30
2018-09-10T20:33:19.835Z,16.30
2018-09-10T20:35:48.791Z,16.30
2018-09-10T20:38:17.776Z,16.40
2018-09-10T20:40:46.714Z,16.50
2018-09-10T20:43:15.649Z,16.50
2018-09-10T20:45:44.781Z,16.60
2018-09-10T20:48:13.750Z,16.70
2018-09-10T20:50:42.687Z,16.70
2018-09-10T20:53:11.687Z,16.80
2018-09-10T20:55:40.684Z,16.80
2018-09-10T20:58:10.615Z,16.80
2018-09-10T21:00:39.541Z,16.80
2018-09-10T21:03:08.500Z,16.80
2018-09-10T21:05:37.458Z,16.80
2018-09-10T21:08:06.393Z,16.80
2018-09-10T21:10:35.329Z,16.80
2018-09-10T21:13:04.289Z,16.80
2018-09-10T21:15:33.306Z,16.80
2018-09-10T21:18:02.333Z,16.80
2018-09-10T21:20:31.265Z,16.80
2018-09-10T21:23:00.202Z,16.70
2018-09-10T21:25:29.213Z,16.70
2018-09-10T21:27:58.177Z,16.70
2018-09-10T21:30:27.114Z,16.70
2018-09-10T21:32:56.061Z,16.70
2018-09-10T21:35:25.017Z,16.60
2018-09-10T21:37:53.934Z,16.60
2018-09-10T21:40:22.861Z,16.60
2018-09-10T21:42:51.875Z,16.50
2018-09-10T21:45:20.849Z,16.50
2018-09-10T21:47:49.791Z,16.50
2018-09-10T21:50:18.733Z,16.40
2018-09-10T21:52:47.671Z,16.30
2018-09-10T21:55:16.612Z,16.30
2018-09-10T21:57:45.509Z,16.20
2018-09-10T22:00:14.720Z,16.20
2018-09-10T22:02:43.708Z,16.10
2018-09-10T22:05:12.646Z,16.10
2018-09-10T22:07:41.605Z,16.00
2018-09-10T22:10:10.624Z,15.90
2018-09-10T22:12:39.478Z,15.90
2018-09-10T22:15:08.591Z,15.80
2018-09-10T22:17:37.577Z,15.70
2018-09-10T22:20:06.529Z,15.60
2018-09-10T22:22:35.618Z,15.60
2018-09-10T22:25:04.676Z,15.60
2018-09-10T22:27:33.618Z,15.50
2018-09-10T22:30:02.567Z,15.50
2018-09-10T22:32:31.502Z,15.40
2018-09-10T22:35:00.453Z,15.40
2018-09-10T22:37:29.384Z,15.30
2018-09-10T22:39:58.417Z,15.20
2018-09-10T22:42:27.341Z,15.20
2018-09-10T22:44:56.378Z,15.20
2018-09-10T22:47:25.351Z,15.20
2018-09-10T22:49:54.265Z,15.10
2018-09-10T22:52:23.194Z,15.00
2018-09-10T22:54:52.159Z,15.00
2018-09-10T22:57:21.080Z,15.00
2018-09-10T22:59:50.042Z,14.90
2018-09-10T23:02:19.075Z,14.90
2018-09-10T23:04:47.976Z,14.90
2018-09-10T23:07:17.017Z,14.80
2018-09-10T23:09:45.957Z,14.80
2018-09-10T23:12:15.050Z,14.80
2018-09-10T23:14:44.037Z,14.70
2018-09-10T23:17:12.978Z,14.70
2018-09-10T23:19:41.982Z,14.70
2018-09-10T23:22:10.969Z,14.60
2018-09-10T23:24:39.900Z,14.70
2018-09-10T23:27:09.151Z,14.60
2018-09-10T23:29:38.154Z,14.60
2018-09-10T23:32:07.171Z,14.60
2018-09-10T23:34:36.131Z,14.60
2018-09-10T23:37:05.157Z,14.60
2018-09-10T23:39:34.104Z,14.60
2018-09-10T23:42:03.031Z,14.60
2018-09-10T23:44:32.017Z,14.50
2018-09-10T23:47:01.023Z,14.50
2018-09-10T23:49:30.018Z,14.40
2018-09-10T23:51:58.974Z,14.40
2018-09-10T23:54:28.014Z,14.40
2018-09-10T23:56:57.010Z,14.30
2018-09-10T23:59:25.953Z,14.30
